createdAt,value
2024-04-18T00:03:34.033Z,99701.81
2024-04-18T00:06:01.151Z,99695.03
2024-04-18T00:08:28.236Z,99702.16
2024-04-18T00:10:55.359Z,99698.19
2024-04-18T00:13:22.448Z,99699.38
2024-04-18T00:18:34.073Z,99701.03
2024-04-18T00:21:01.226Z,99706.97
2024-04-18T00:23:28.307Z,99699.75
2024-04-18T00:25:55.409Z,99697.03
2024-04-18T00:28:22.476Z,99699.75
2024-04-18T00:33:34.115Z,99708.16
2024-04-18T00:36:01.188Z,99701.03
2024-04-18T00:38:28.292Z,99707.44
2024-04-18T00:40:55.387Z,99704.59
2024-04-18T00:43:22.460Z,99708.16
2024-04-18T00:48:34.003Z,99710.53
2024-04-18T00:51:01.160Z,99710.53
2024-04-18T00:53:28.241Z,99702.59
2024-04-18T00:55:58.112Z,99716.94
2024-04-18T00:58:25.184Z,99712.53
2024-04-18T01:03:37.081Z,99700.66
2024-04-18T01:06:04.240Z,99708.94
2024-04-18T01:08:31.352Z,99706.97
2024-04-18T01:10:58.395Z,99705.72
2024-04-18T01:13:25.494Z,99705.31
2024-04-18T01:18:37.277Z,99707.66
2024-04-18T01:21:04.398Z,99707.31
2024-04-18T01:23:31.502Z,99707.75
2024-04-18T01:25:58.595Z,99712.09
2024-04-18T01:28:25.692Z,99711.72
2024-04-18T01:33:47.791Z,99716.88
2024-04-18T01:36:15.063Z,99710.88
2024-04-18T01:38:42.139Z,99715.66
2024-04-18T01:41:10.068Z,99715.66
2024-04-18T01:43:37.185Z,99725.22
2024-04-18T01:48:48.918Z,99717.66
2024-04-18T01:51:16.981Z,99722.50
2024-04-18T01:53:44.101Z,99721.66
2024-04-18T01:56:11.199Z,99730.72
2024-04-18T01:58:38.292Z,99729.59
2024-04-18T02:03:50.052Z,99732.78
2024-04-18T02:06:18.082Z,99729.66
2024-04-18T02:08:45.264Z,99730.00
2024-04-18T02:11:12.406Z,99732.84
2024-04-18T02:13:39.533Z,99732.00
2024-04-18T02:16:06.648Z,99732.78
2024-04-18T02:18:33.938Z,99735.22
2024-04-18T02:21:01.157Z,99735.22
2024-04-18T02:23:28.303Z,99727.28
2024-04-18T02:25:55.399Z,99732.78
2024-04-18T02:28:22.512Z,99732.78
2024-04-18T02:30:49.638Z,99731.19
2024-04-18T02:33:17.381Z,99732.78
2024-04-18T02:35:44.793Z,99728.88
2024-04-18T02:38:11.910Z,99729.22
2024-04-18T02:40:39.011Z,99724.00
2024-04-18T02:43:06.103Z,99726.38
2024-04-18T02:45:33.270Z,99725.22
2024-04-18T02:48:00.410Z,99732.00
2024-04-18T02:50:27.559Z,99736.00
2024-04-18T02:52:54.652Z,99734.00
2024-04-18T02:55:21.768Z,99723.16
2024-04-18T02:57:49.064Z,99735.56
2024-04-18T03:00:17.097Z,99735.50
2024-04-18T03:02:44.206Z,99734.31
2024-04-18T03:05:11.290Z,99729.59
2024-04-18T03:07:38.401Z,99732.72
2024-04-18T03:10:05.510Z,99731.13
2024-04-18T03:12:32.618Z,99735.56
2024-04-18T03:14:59.709Z,99738.34
2024-04-18T03:17:26.835Z,99744.69
2024-04-18T03:19:53.979Z,99736.78
2024-04-18T03:22:21.968Z,99740.03
2024-04-18T03:24:49.134Z,99734.00
2024-04-18T03:27:16.328Z,99744.22
2024-04-18T03:29:43.416Z,99732.84
2024-04-18T03:32:10.497Z,99740.78
2024-04-18T03:34:37.562Z,99742.34
2024-04-18T03:37:04.722Z,99745.56
2024-04-18T03:39:31.837Z,99742.72
2024-04-18T03:41:58.936Z,99740.78
2024-04-18T03:44:26.046Z,99742.72
2024-04-18T03:46:53.135Z,99755.41
2024-04-18T03:52:04.761Z,99750.69
2024-04-18T03:54:39.850Z,99754.28
2024-04-18T03:57:14.248Z,99754.38
2024-04-18T03:59:41.320Z,99753.03
2024-04-18T04:02:08.470Z,99750.38
2024-04-18T04:07:31.160Z,99766.44
2024-04-18T04:09:58.281Z,99771.66
2024-04-18T04:12:25.460Z,99766.59
2024-04-18T04:14:53.447Z,99774.09
2024-04-18T04:17:20.531Z,99770.25
2024-04-18T04:22:33.576Z,99778.28
2024-04-18T04:25:01.767Z,99782.69
2024-04-18T04:27:28.909Z,99786.31
2024-04-18T04:29:56.354Z,99789.13
2024-04-18T04:32:23.627Z,99784.34
2024-04-18T04:37:35.702Z,99781.31
2024-04-18T04:40:02.860Z,99786.88
2024-04-18T04:42:32.837Z,99782.50
2024-04-18T04:44:59.979Z,99782.91
2024-04-18T04:47:27.960Z,99781.72
2024-04-18T04:52:40.654Z,99790.91
2024-04-18T04:55:07.860Z,99779.78
2024-04-18T04:57:35.028Z,99785.75
2024-04-18T05:00:03.055Z,99779.00
2024-04-18T05:02:30.330Z,99779.41
2024-04-18T05:07:42.004Z,99779.09
2024-04-18T05:10:09.144Z,99781.72
2024-04-18T05:12:37.175Z,99787.56
2024-04-18T05:15:04.314Z,99783.13
2024-04-18T05:17:32.568Z,99787.41
2024-04-18T05:22:44.407Z,99790.94
2024-04-18T05:25:14.088Z,99785.38
2024-04-18T05:27:41.477Z,99787.72
2024-04-18T05:30:08.635Z,99793.66
2024-04-18T05:32:35.780Z,99790.44
2024-04-18T05:37:47.407Z,99788.81
2024-04-18T05:40:14.502Z,99797.16
2024-04-18T05:42:41.609Z,99797.59
2024-04-18T05:45:08.697Z,99801.53
2024-04-18T05:47:35.816Z,99803.88
2024-04-18T05:52:47.372Z,99805.41
2024-04-18T05:55:14.500Z,99808.97
2024-04-18T05:57:41.726Z,99815.69
2024-04-18T06:00:08.836Z,99813.28
2024-04-18T06:02:36.005Z,99811.66
2024-04-18T06:07:47.445Z,99814.84
2024-04-18T06:10:14.522Z,99815.63
2024-04-18T06:12:41.715Z,99819.56
2024-04-18T06:15:09.722Z,99820.38
2024-04-18T06:17:36.827Z,99826.75
2024-04-18T06:22:48.321Z,99834.28
2024-04-18T06:25:16.303Z,99831.13
2024-04-18T06:27:44.316Z,99831.91
2024-04-18T06:30:12.302Z,99824.69
2024-04-18T06:32:39.422Z,99827.06
2024-04-18T06:37:53.057Z,99832.22
2024-04-18T06:40:20.999Z,99839.78
2024-04-18T06:42:48.199Z,99841.75
2024-04-18T06:45:15.353Z,99841.34
2024-04-18T06:47:42.479Z,99851.69
2024-04-18T06:52:55.081Z,99852.47
2024-04-18T06:55:22.200Z,99859.63
2024-04-18T06:57:50.219Z,99850.06
2024-04-18T07:00:17.355Z,99847.72
2024-04-18T07:02:44.624Z,99859.97
2024-04-18T07:07:56.257Z,99862.34
2024-04-18T07:10:24.241Z,99856.00
2024-04-18T07:12:51.542Z,99853.63
2024-04-18T07:15:19.600Z,99851.22
2024-04-18T07:17:46.840Z,99856.41
2024-04-18T07:22:58.638Z,99856.47
2024-04-18T07:25:25.733Z,99868.38
2024-04-18T07:27:52.941Z,99865.59
2024-04-18T07:30:20.110Z,99862.41
2024-04-18T07:32:47.288Z,99864.75
2024-04-18T07:37:58.985Z,99869.09
2024-04-18T07:40:26.053Z,99871.53
2024-04-18T07:42:53.138Z,99877.91
2024-04-18T07:45:20.319Z,99871.09
2024-04-18T07:47:47.512Z,99873.09
2024-04-18T07:53:04.118Z,99870.25
2024-04-18T07:55:36.720Z,99864.69
2024-04-18T07:58:04.611Z,99871.44
2024-04-18T08:00:34.349Z,99869.06
2024-04-18T08:03:04.735Z,99867.09
2024-04-18T08:08:30.647Z,99869.91
2024-04-18T08:11:16.357Z,99873.47
2024-04-18T08:13:50.057Z,99867.91
2024-04-18T08:16:19.950Z,99867.53
2024-04-18T08:18:47.171Z,99871.47
2024-04-18T08:23:58.731Z,99872.34
2024-04-18T08:26:25.862Z,99875.47
2024-04-18T08:28:52.955Z,99877.44
2024-04-18T08:31:20.093Z,99873.53
2024-04-18T08:33:54.355Z,99869.56
2024-04-18T08:39:10.740Z,99865.59
2024-04-18T08:41:41.073Z,99874.72
2024-04-18T08:44:10.458Z,99872.34
2024-04-18T08:46:37.518Z,99867.53
2024-04-18T08:49:04.709Z,99867.53
2024-04-18T08:54:17.317Z,99860.72
2024-04-18T08:56:44.422Z,99858.34
2024-04-18T08:59:12.396Z,99860.69
2024-04-18T09:01:39.522Z,99855.91
2024-04-18T09:04:06.667Z,99857.13
2024-04-18T09:09:18.523Z,99865.88
2024-04-18T09:11:45.675Z,99868.66
2024-04-18T09:14:12.806Z,99864.31
2024-04-18T09:16:39.889Z,99864.31
2024-04-18T09:19:08.139Z,99867.53
2024-04-18T09:24:20.910Z,99862.72
2024-04-18T09:26:48.006Z,99851.59
2024-04-18T09:29:15.973Z,99857.16
2024-04-18T09:31:43.787Z,99852.78
2024-04-18T09:34:11.070Z,99854.31
2024-04-18T09:39:22.729Z,99860.66
2024-04-18T09:41:49.929Z,99853.84
2024-04-18T09:44:17.060Z,99850.72
2024-04-18T09:46:44.153Z,99835.22
2024-04-18T09:49:11.384Z,99844.38
2024-04-18T09:54:23.063Z,99840.78
2024-04-18T09:56:50.149Z,99848.34
2024-04-18T09:59:18.155Z,99846.72
2024-04-18T10:01:45.267Z,99840.00
2024-04-18T10:04:12.594Z,99849.50
2024-04-18T10:06:39.912Z,99848.69
2024-04-18T10:09:07.246Z,99850.34
2024-04-18T10:11:34.463Z,99856.75
2024-04-18T10:14:01.639Z,99868.69
2024-04-18T10:16:28.698Z,99871.47
2024-04-18T10:18:55.962Z,99871.09
2024-04-18T10:21:32.075Z,99860.81
2024-04-18T10:24:05.297Z,99866.72
2024-04-18T10:26:32.504Z,99863.28
2024-04-18T10:28:59.589Z,99865.50
2024-04-18T10:31:26.742Z,99854.19
2024-04-18T10:33:53.896Z,99863.00
2024-04-18T10:36:21.919Z,99856.34
2024-04-18T10:38:49.075Z,99850.84
2024-04-18T10:41:16.221Z,99861.81
2024-04-18T10:43:43.276Z,99861.19
2024-04-18T10:46:10.401Z,99865.75
2024-04-18T10:48:37.572Z,99863.13
2024-04-18T10:51:04.769Z,99872.69
2024-04-18T10:53:31.871Z,99867.81
2024-04-18T10:55:59.214Z,99866.13
2024-04-18T10:58:26.319Z,99865.53
2024-04-18T11:00:53.470Z,99863.34
2024-04-18T11:03:20.633Z,99850.16
2024-04-18T11:05:47.715Z,99857.66
2024-04-18T11:08:14.848Z,99851.66
2024-04-18T11:10:41.943Z,99847.72
2024-04-18T11:13:09.071Z,99851.78
2024-04-18T11:15:36.219Z,99854.38
2024-04-18T11:18:03.774Z,99855.88
2024-04-18T11:20:32.118Z,99859.09
2024-04-18T11:23:08.960Z,99857.84
2024-04-18T11:25:40.933Z,99856.56
2024-04-18T11:28:08.344Z,99855.44
2024-04-18T11:30:35.786Z,99853.13
2024-04-18T11:33:03.297Z,99860.25
2024-04-18T11:35:30.523Z,99857.16
2024-04-18T11:37:57.586Z,99863.75
2024-04-18T11:40:24.630Z,99863.25
2024-04-18T11:42:51.683Z,99876.63
2024-04-18T11:45:18.994Z,99868.72
2024-04-18T11:47:46.346Z,99869.84
2024-04-18T11:50:13.530Z,99873.03
2024-04-18T11:52:40.590Z,99866.25
2024-04-18T11:57:55.182Z,99866.97
2024-04-18T12:00:22.307Z,99862.97
2024-04-18T12:02:49.438Z,99864.53
2024-04-18T12:05:16.616Z,99861.34
2024-04-18T12:07:43.709Z,99858.94
2024-04-18T12:12:55.292Z,99870.00
2024-04-18T12:15:22.333Z,99862.44
2024-04-18T12:17:49.502Z,99860.41
2024-04-18T12:20:16.583Z,99858.81
2024-04-18T12:22:43.640Z,99862.38
2024-04-18T12:27:55.237Z,99852.44
2024-04-18T12:30:22.338Z,99858.34
2024-04-18T12:32:49.497Z,99860.38
2024-04-18T12:35:16.650Z,99851.22
2024-04-18T12:37:43.697Z,99857.59
2024-04-18T12:42:55.409Z,99861.91
2024-04-18T12:45:22.494Z,99865.88
2024-04-18T12:47:49.706Z,99867.00
2024-04-18T12:50:16.846Z,99865.41
2024-04-18T12:52:43.946Z,99865.00
2024-04-18T12:57:55.513Z,99864.94
2024-04-18T13:00:22.633Z,99869.47
2024-04-18T13:02:49.794Z,99873.78
2024-04-18T13:05:16.918Z,99879.09
2024-04-18T13:07:43.990Z,99867.75
2024-04-18T13:12:55.873Z,99867.91
2024-04-18T13:15:25.772Z,99866.56
2024-04-18T13:17:52.861Z,99868.44
2024-04-18T13:20:19.949Z,99873.91
2024-04-18T13:22:47.044Z,99871.84
2024-04-18T13:28:01.187Z,99871.34
2024-04-18T13:30:28.316Z,99869.75
2024-04-18T13:32:55.447Z,99860.53
2024-04-18T13:35:22.533Z,99858.94
2024-04-18T13:37:52.423Z,99867.63
2024-04-18T13:43:03.783Z,99873.97
2024-04-18T13:45:30.977Z,99871.19
2024-04-18T13:47:58.194Z,99879.13
2024-04-18T13:50:25.329Z,99876.34
2024-04-18T13:52:52.383Z,99873.97
2024-04-18T13:58:06.567Z,99872.72
2024-04-18T14:00:33.704Z,99875.88
2024-04-18T14:03:03.652Z,99885.81
2024-04-18T14:05:33.590Z,99881.03
2024-04-18T14:08:03.462Z,99879.84
2024-04-18T14:13:17.723Z,99883.75
2024-04-18T14:15:44.835Z,99884.13
2024-04-18T14:18:12.065Z,99886.13
2024-04-18T14:20:41.950Z,99886.91
2024-04-18T14:23:09.010Z,99888.13
2024-04-18T14:28:28.091Z,99897.97
2024-04-18T14:31:00.497Z,99897.19
2024-04-18T14:33:30.467Z,99900.75
2024-04-18T14:35:57.696Z,99902.34
2024-04-18T14:38:24.756Z,99899.16
2024-04-18T14:43:39.211Z,99896.78
2024-04-18T14:46:06.322Z,99906.72
2024-04-18T14:48:33.413Z,99893.22
2024-04-18T14:51:00.523Z,99906.72
2024-04-18T14:53:27.644Z,99893.16
2024-04-18T14:58:44.724Z,99899.50
2024-04-18T15:01:11.792Z,99901.94
2024-04-18T15:03:41.772Z,99899.94
2024-04-18T15:06:11.678Z,99906.66
2024-04-18T15:08:42.031Z,99902.66
2024-04-18T15:13:59.255Z,99907.81
2024-04-18T15:16:29.114Z,99911.00
2024-04-18T15:18:59.054Z,99912.59
2024-04-18T15:21:28.953Z,99914.59
2024-04-18T15:23:58.823Z,99925.28
2024-04-18T15:29:10.380Z,99914.16
2024-04-18T15:31:40.265Z,99923.31
2024-04-18T15:34:07.377Z,99923.66
2024-04-18T15:36:37.305Z,99924.84
2024-04-18T15:39:07.219Z,99919.28
2024-04-18T15:44:18.639Z,99920.09
2024-04-18T15:46:45.718Z,99931.59
2024-04-18T15:49:12.908Z,99930.78
2024-04-18T15:51:42.942Z,99936.00
2024-04-18T15:54:10.237Z,99941.13
2024-04-18T15:59:24.970Z,99937.16
2024-04-18T16:01:52.043Z,99936.31
2024-04-18T16:04:19.165Z,99939.53
2024-04-18T16:06:46.235Z,99945.88
2024-04-18T16:09:13.347Z,99949.84
2024-04-18T16:14:27.548Z,99957.00
2024-04-18T16:16:54.632Z,99957.41
2024-04-18T16:19:25.387Z,99952.69
2024-04-18T16:21:56.615Z,99945.97
2024-04-18T16:24:26.512Z,99951.53
2024-04-18T16:29:41.113Z,99949.16
2024-04-18T16:32:08.204Z,99953.97
2024-04-18T16:34:36.991Z,99958.72
2024-04-18T16:37:12.781Z,99955.50
2024-04-18T16:39:45.045Z,99960.28
2024-04-18T16:44:59.340Z,99965.50
2024-04-18T16:47:26.415Z,99964.66
2024-04-18T16:49:56.293Z,99965.50
2024-04-18T16:52:23.393Z,99969.47
2024-04-18T16:54:50.445Z,99955.94
2024-04-18T17:00:02.034Z,99960.72
2024-04-18T17:02:31.978Z,99959.94
2024-04-18T17:04:59.191Z,99960.72
2024-04-18T17:07:26.240Z,99960.72
2024-04-18T17:09:53.323Z,99967.06
2024-04-18T17:15:05.151Z,99963.50
2024-04-18T17:17:32.398Z,99961.06
2024-04-18T17:19:59.560Z,99958.28
2024-04-18T17:22:26.675Z,99962.31
2024-04-18T17:24:53.793Z,99959.13
2024-04-18T17:30:06.414Z,99960.72
2024-04-18T17:32:33.501Z,99961.91
2024-04-18T17:35:00.672Z,99961.13
2024-04-18T17:37:27.803Z,99959.13
2024-04-18T17:39:54.915Z,99957.94
2024-04-18T17:45:06.593Z,99959.56
2024-04-18T17:47:33.811Z,99960.75
2024-04-18T17:50:00.990Z,99953.19
2024-04-18T17:52:28.129Z,99963.50
2024-04-18T17:54:58.886Z,99955.16
2024-04-18T18:00:11.723Z,99965.09
2024-04-18T18:02:38.824Z,99965.44
2024-04-18T18:05:05.934Z,99967.00
2024-04-18T18:07:33.166Z,99961.44
2024-04-18T18:10:00.380Z,99967.75
2024-04-18T18:15:11.969Z,99977.66
2024-04-18T18:17:40.283Z,99970.53
2024-04-18T18:20:08.466Z,99974.47
2024-04-18T18:22:35.559Z,99968.50
2024-04-18T18:25:02.661Z,99974.41
2024-04-18T18:27:29.856Z,99976.03
2024-04-18T18:29:56.989Z,99972.88
2024-04-18T18:32:24.100Z,99980.84
2024-04-18T18:34:51.181Z,99985.19
2024-04-18T18:37:18.294Z,99985.97
2024-04-18T18:39:45.561Z,99982.41
2024-04-18T18:42:12.754Z,99987.16
2024-04-18T18:44:40.069Z,99974.81
2024-04-18T18:47:07.230Z,99980.38
2024-04-18T18:49:34.333Z,99981.59
2024-04-18T18:52:01.471Z,99987.56
2024-04-18T18:54:28.577Z,99988.72
2024-04-18T18:56:55.686Z,99987.13
2024-04-18T18:59:22.740Z,99993.09
2024-04-18T19:01:49.822Z,99992.69
2024-04-18T19:04:17.212Z,99992.31
2024-04-18T19:06:44.520Z,99997.47
2024-04-18T19:09:11.595Z,100001.03
2024-04-18T19:11:38.737Z,99999.84
2024-04-18T19:14:05.843Z,99997.84
2024-04-18T19:16:32.947Z,99999.41
2024-04-18T19:19:00.046Z,99998.63
2024-04-18T19:21:27.188Z,99996.63
2024-04-18T19:23:54.451Z,99990.63
2024-04-18T19:26:21.574Z,99995.41
2024-04-18T19:28:48.685Z,99988.25
2024-04-18T19:31:15.745Z,99988.25
2024-04-18T19:33:43.020Z,99998.97
2024-04-18T19:36:10.204Z,99993.00
2024-04-18T19:38:37.271Z,99994.63
2024-04-18T19:41:04.381Z,99994.63
2024-04-18T19:43:31.500Z,99990.63
2024-04-18T19:45:58.610Z,99991.44
2024-04-18T19:48:25.932Z,99997.06
2024-04-18T19:50:53.104Z,99997.41
2024-04-18T19:53:20.207Z,99998.97
2024-04-18T19:55:47.324Z,99985.88
2024-04-18T19:58:14.427Z,99991.00
2024-04-18T20:03:35.979Z,99989.03
2024-04-18T20:06:03.144Z,99991.38
2024-04-18T20:08:30.218Z,99989.44
2024-04-18T20:10:57.334Z,99983.09
2024-04-18T20:13:24.401Z,99991.00
2024-04-18T20:18:36.184Z,99993.41
2024-04-18T20:21:03.384Z,99991.84
2024-04-18T20:23:30.542Z,99986.66
2024-04-18T20:25:57.652Z,99992.22
2024-04-18T20:28:24.740Z,100001.31
2024-04-18T20:33:36.399Z,99991.38
2024-04-18T20:36:03.592Z,99990.16
2024-04-18T20:38:30.672Z,99992.94
2024-04-18T20:40:57.723Z,99994.94
2024-04-18T20:43:24.883Z,99985.00
2024-04-18T20:48:36.848Z,99995.72
2024-04-18T20:51:03.976Z,99990.97
2024-04-18T20:53:31.130Z,99993.75
2024-04-18T20:55:58.198Z,99995.31
2024-04-18T20:58:25.277Z,100005.66
2024-04-18T21:03:37.216Z,100004.44
2024-04-18T21:06:04.396Z,99990.16
2024-04-18T21:08:31.487Z,100000.88
2024-04-18T21:10:58.589Z,99997.31
2024-04-18T21:13:25.716Z,99999.31
2024-04-18T21:18:37.832Z,99990.97
2024-04-18T21:21:05.004Z,99992.53
2024-04-18T21:23:32.134Z,99990.16
2024-04-18T21:25:59.321Z,99996.53
2024-04-18T21:28:26.529Z,99992.53
2024-04-18T21:33:38.311Z,99997.31
2024-04-18T21:36:05.601Z,100000.09
2024-04-18T21:38:39.475Z,99996.09
2024-04-18T21:41:13.666Z,99998.09
2024-04-18T21:43:40.841Z,100000.47
2024-04-18T21:48:52.618Z,100002.09
2024-04-18T21:51:19.923Z,99999.69
2024-04-18T21:53:47.047Z,99999.28
2024-04-18T21:56:14.124Z,99994.13
2024-04-18T21:58:41.231Z,99998.47
2024-04-18T22:03:53.137Z,99998.88
2024-04-18T22:06:20.345Z,99989.34
2024-04-18T22:08:47.651Z,99992.91
2024-04-18T22:11:15.628Z,99990.94
2024-04-18T22:13:42.723Z,99995.25
2024-04-18T22:18:54.625Z,99996.50
2024-04-18T22:21:22.711Z,99987.72
2024-04-18T22:23:52.166Z,99988.56
2024-04-18T22:26:19.594Z,99986.56
2024-04-18T22:28:46.710Z,99988.50
2024-04-18T22:33:58.449Z,99975.00
2024-04-18T22:36:25.666Z,99977.38
2024-04-18T22:38:52.775Z,99980.16
2024-04-18T22:41:19.927Z,99972.59
2024-04-18T22:43:46.998Z,99977.38
2024-04-18T22:48:58.969Z,99980.94
2024-04-18T22:51:26.114Z,99969.81
2024-04-18T22:53:53.241Z,99972.16
2024-04-18T22:56:20.341Z,99974.59
2024-04-18T22:58:47.448Z,99979.75
2024-04-18T23:03:59.241Z,99987.28
2024-04-18T23:06:26.427Z,99980.94
2024-04-18T23:08:53.559Z,99981.28
2024-04-18T23:11:20.939Z,99987.28
2024-04-18T23:13:48.019Z,99979.75
2024-04-18T23:18:59.481Z,99972.16
2024-04-18T23:21:26.679Z,99974.53
2024-04-18T23:23:53.808Z,99976.53
2024-04-18T23:26:20.952Z,99969.38
2024-04-18T23:28:48.086Z,99969.38
2024-04-18T23:34:00.585Z,99966.59
2024-04-18T23:36:27.747Z,99967.00
2024-04-18T23:38:54.862Z,99965.81
2024-04-18T23:41:21.954Z,99965.41
2024-04-18T23:43:49.040Z,99959.84
2024-04-18T23:46:16.148Z,99954.69
2024-04-18T23:49:11.921Z,99955.09
2024-04-18T23:51:39.007Z,99952.25
2024-04-18T23:54:06.154Z,99948.69
2024-04-18T23:56:33.247Z,99951.47
2024-04-18T23:59:00.378Z,99947.88
